Flight Track Log - Related Links

Times and Time Zones

All times are in EST time to prevent confusion due to time zone crossing. See the TRS1235 flight status page for this flight to view local times or setup timezone preferences in your user account.

Time Position Orientation Groundspeed Altitude Reporting Facility
EST Latitude Longitude Course Direction KTS MPH feet Rate Location/Type
Fri 03:50:20 PM 19.0475 -69.0194 305° West 457 526 22,600  Level Miami Center
Fri 03:51:20 PM 19.1194 -69.1294 305° West 457 526 24,300 1,700 Climbing Miami Center
Fri 03:52:20 PM 19.1894 -69.2436 303° West 462 532 26,000 1,800 Climbing Miami Center
Fri 03:53:20 PM 19.2653 -69.3536 306° West 467 537 27,900 2,000 Climbing Miami Center
Fri 03:54:20 PM 19.3392 -69.4658 305° West 467 537 30,000 2,250 Climbing Miami Center
Fri 03:55:20 PM 19.4067 -69.5719 304° West 467 537 32,400 2,300 Climbing Miami Center
Fri 03:56:20 PM 19.4739 -69.6739 305° West 445 512 34,600 1,850 Climbing Miami Center
Fri 03:57:20 PM 19.5389 -69.7758 304° West 431 496 36,100 1,200 Climbing Miami Center
Fri 03:58:20 PM 19.6033 -69.8692 306° West 415 478 37,000 900 Climbing Miami Center
Fri 03:59:20 PM 19.6683 -69.9739 303° West 415 478 37,900 500 Climbing Miami Center
Fri 04:00:20 PM 19.7372 -70.0714 307° West 415 478 38,000 50 Climbing Miami Center
Fri 04:01:20 PM 19.8019 -70.1739 304° West 415 478 38,000  Level Miami Center
Fri 04:02:20 PM 19.8667 -70.2808 303° West 420 483 38,000  Level Miami Center
Fri 04:03:20 PM 19.9333 -70.3792 306° West 420 483 38,000  Level Miami Center
Fri 04:04:20 PM 20.0000 -70.4775 306° West 420 483 38,000  Level Miami Center
Fri 04:05:20 PM 20.0644 -70.5803 304° West 420 483 38,000  Level Miami Center
Fri 04:06:20 PM 20.1289 -70.6833 304° West 420 483 38,000  Level Miami Center
Fri 04:07:20 PM 20.1933 -70.7819 305° West 420 483 38,000  Level Miami Center
Fri 04:08:20 PM 20.2575 -70.8806 305° West 415 478 38,000  Level Miami Center
Fri 04:09:20 PM 20.3239 -70.9839 304° West 415 478 38,000  Level Miami Center
Fri 04:10:20 PM 20.3883 -71.0872 304° West 415 478 38,000  Level Miami Center
Fri 04:11:20 PM 20.4706 -71.1722 316° Northwest 421 484 38,000  Level Miami Center
Fri 04:12:20 PM 20.5656 -71.2611 319° Northwest 415 478 38,000  Level Miami Center
Fri 04:13:20 PM 20.6539 -71.3394 320° Northwest 409 471 38,000  Level Miami Center
Fri 04:14:20 PM 20.7400 -71.4203 319° Northwest 409 471 38,000  Level Miami Center
Fri 04:15:20 PM 20.8283 -71.4989 320° Northwest 414 476 38,000  Level Miami Center
Fri 04:16:20 PM 20.9144 -71.5797 319° Northwest 414 476 38,000  Level Miami Center
Fri 04:17:20 PM 21.0008 -71.6608 319° Northwest 414 476 38,000  Level Miami Center
Fri 04:18:20 PM 21.0889 -71.7419 319° Northwest 414 476 38,000  Level Miami Center
Fri 04:19:20 PM 21.1750 -71.8231 319° Northwest 414 476 38,000  Level Miami Center
Fri 04:20:20 PM 21.2631 -71.9022 320° Northwest 414 476 38,000  Level Miami Center
Fri 04:21:20 PM 21.3514 -71.9836 319° Northwest 419 482 38,000  Level Miami Center
Fri 04:22:20 PM 21.4394 -72.0650 319° Northwest 419 482 38,000  Level Miami Center
Fri 04:23:20 PM 21.5253 -72.1467 318° Northwest 419 482 38,000  Level Miami Center
Fri 04:24:20 PM 21.6133 -72.2283 319° Northwest 419 482 38,000  Level Miami Center
Fri 04:25:20 PM 21.7014 -72.3125 318° Northwest 419 482 38,000  Level Miami Center
Fri 04:26:20 PM 21.7917 -72.3944 320° Northwest 419 482 38,000  Level Miami Center
Fri 04:27:20 PM 21.8775 -72.4742 319° Northwest 419 482 38,000  Level Miami Center
Fri 04:28:20 PM 21.9633 -72.5564 318° Northwest 419 482 38,000  Level Miami Center
Fri 04:29:20 PM 22.0511 -72.6408 318° Northwest 419 482 38,000  Level Miami Center
Fri 04:30:20 PM 22.1389 -72.7231 319° Northwest 419 482 38,000  Level Miami Center
Fri 04:31:20 PM 22.2311 -72.8078 320° Northwest 424 488 38,000  Level Miami Center
Fri 04:32:20 PM 22.3167 -72.8903 318° Northwest 419 482 38,000  Level Miami Center
Fri 04:33:20 PM 22.4086 -72.9683 322° Northwest 419 482 38,000  Level Miami Center
Fri 04:34:20 PM 22.4814 -73.0447 316° Northwest 414 476 38,000  Level Miami Center
Fri 04:35:20 PM 22.5672 -73.1278 318° Northwest 414 476 38,000  Level Miami Center
Fri 04:36:20 PM 22.6633 -73.2150 320° Northwest 414 476 38,000  Level Miami Center
Fri 04:37:20 PM 22.7508 -73.2958 320° Northwest 414 476 38,000  Level Miami Center
Fri 04:38:20 PM 22.8342 -73.3792 317° Northwest 408 470 38,000  Level Miami Center
Fri 04:39:20 PM 22.9217 -73.4647 318° Northwest 408 470 38,000  Level Miami Center
Fri 04:40:20 PM 23.0111 -73.5436 321° Northwest 408 470 38,000  Level Miami Center
Fri 04:41:20 PM 23.0967 -73.6294 317° Northwest 408 470 38,000  Level Miami Center
Fri 04:42:20 PM 23.1797 -73.7108 318° Northwest 413 475 38,000  Level Miami Center
Fri 04:43:20 PM 23.2672 -73.7947 319° Northwest 413 475 38,000  Level Miami Center
Fri 04:44:20 PM 23.3483 -73.8767 317° Northwest 413 475 38,000  Level Miami Center
Fri 04:45:20 PM 23.4356 -73.9583 319° Northwest 413 475 38,000  Level Miami Center
Fri 04:46:20 PM 23.5228 -74.0422 319° Northwest 407 468 38,000  Level Miami Center
Fri 04:47:20 PM 23.6036 -74.1244 317° Northwest 407 468 38,000  Level Miami Center
Fri 04:48:20 PM 23.6908 -74.2064 319° Northwest 407 468 38,000  Level Miami Center
Fri 04:49:20 PM 23.7758 -74.2864 319° Northwest 407 468 38,000  Level Miami Center
Fri 04:50:20 PM 23.8608 -74.3711 318° Northwest 407 468 38,000  Level Miami Center
Fri 04:51:20 PM 23.9436 -74.4536 318° Northwest 407 468 38,000  Level Miami Center
Fri 04:52:20 PM 24.0286 -74.5361 318° Northwest 407 468 38,000  Level Miami Center
Fri 04:53:20 PM 24.1133 -74.6186 318° Northwest 407 468 38,000  Level Miami Center
Fri 04:54:20 PM 24.1983 -74.7036 318° Northwest 407 468 38,000  Level Miami Center
Fri 04:55:20 PM 24.2831 -74.7889 317° Northwest 407 468 38,000  Level Miami Center
Fri 04:56:20 PM 24.3656 -74.8697 318° Northwest 402 463 38,000  Level Miami Center
Fri 04:57:20 PM 24.4503 -74.9528 318° Northwest 402 463 38,000  Level Miami Center
Fri 04:58:20 PM 24.5328 -75.0358 318° Northwest 402 463 38,000  Level Miami Center
Fri 04:59:20 PM 24.6175 -75.1217 317° Northwest 402 463 38,000  Level Miami Center
Fri 05:00:20 PM 24.7000 -75.2006 319° Northwest 402 463 38,000  Level Miami Center
Fri 05:01:20 PM 24.7822 -75.2886 316° Northwest 402 463 38,000  Level Miami Center
Fri 05:02:20 PM 24.8647 -75.3722 317° Northwest 402 463 38,000  Level Miami Center
Fri 05:03:20 PM 24.9492 -75.4539 319° Northwest 402 463 38,000  Level Miami Center
Fri 05:04:20 PM 25.0314 -75.5375 317° Northwest 402 463 38,000  Level Miami Center
Fri 05:05:20 PM 25.1136 -75.6217 317° Northwest 402 463 38,000  Level Miami Center
Fri 05:06:20 PM 25.1978 -75.7058 318° Northwest 402 463 38,000  Level Miami Center
Fri 05:07:20 PM 25.2675 -75.7786 317° Northwest 392 451 38,000  Level Miami Center
Fri 05:08:20 PM 25.3536 -75.8631 318° Northwest 399 459 38,000  Level Miami Center
Fri 05:09:20 PM 25.4419 -75.9497 318° Northwest 399 459 38,000  Level Miami Center
Fri 05:10:20 PM 25.5219 -76.0344 316° Northwest 393 452 38,000  Level Miami Center
Fri 05:11:20 PM 25.6061 -76.1167 319° Northwest 400 460 38,000  Level Miami Center
Fri 05:12:20 PM 25.6878 -76.2014 317° Northwest 394 453 38,000  Level Miami Center
Fri 05:13:20 PM 25.7697 -76.2842 318° Northwest 401 461 38,000  Level Miami Center
Fri 05:14:20 PM 25.8536 -76.3669 318° Northwest 401 461 38,000  Level Miami Center
Fri 05:15:20 PM 25.9375 -76.4542 317° Northwest 401 461 38,000  Level Miami Center
Fri 05:16:20 PM 26.0192 -76.5397 317° Northwest 401 461 38,000  Level Miami Center
Fri 05:17:20 PM 26.1008 -76.6228 318° Northwest 401 461 38,000  Level Miami Center
Fri 05:18:20 PM 26.1867 -76.7106 317° Northwest 396 456 38,000  Level Miami Center
Fri 05:19:20 PM 26.2703 -76.8008 316° Northwest 396 456 38,000  Level Miami Center
Fri 05:20:20 PM 26.3519 -76.8842 318° Northwest 403 464 38,000  Level Miami Center
Fri 05:21:20 PM 26.4333 -76.9700 317° Northwest 397 457 38,000  Level Miami Center
Fri 05:22:20 PM 26.5167 -77.0561 317° Northwest 397 457 38,000  Level Miami Center
Fri 05:23:20 PM 26.6003 -77.1422 317° Northwest 397 457 38,000  Level Miami Center
Fri 05:24:20 PM 26.6836 -77.2331 316° Northwest 402 463 38,000  Level Miami Center
Fri 05:25:20 PM 26.7731 -77.3172 320° Northwest 397 457 38,000  Level Miami Center
Fri 05:26:20 PM 26.8586 -77.4106 316° Northwest 397 457 38,000  Level Miami Center
Fri 05:27:20 PM 26.9314 -77.4878 317° Northwest 403 464 38,000  Level Miami Center
Fri 05:28:20 PM 27.0122 -77.5839 313° West 408 470 38,000  Level Miami Center
Fri 05:29:20 PM 27.0767 -77.6775 308° West 403 464 38,000  Level Miami Center
Fri 05:30:20 PM 27.1386 -77.7900 302° West 403 464 38,000  Level Miami Center
Fri 05:31:20 PM 27.1983 -77.8911 304° West 397 457 38,000  Level Miami Center
Fri 05:32:20 PM 27.2603 -77.9897 305° West 392 451 38,000  Level Miami Center
Fri 05:33:20 PM 27.3200 -78.1072 300° West 405 466 38,000 50 Level Miami Center
Fri 05:34:20 PM 27.3839 -78.2039 307° West 405 466 38,100 500 Climbing Miami Center
Fri 05:35:20 PM 27.4414 -78.3075 302° West 400 460 39,000 450 Climbing Miami Center
Fri 05:36:20 PM 27.5092 -78.4092 307° West 400 460 39,000  Level Miami Center
Fri 05:37:20 PM 27.5644 -78.5131 301° West 395 455 39,000  Level Miami Center
Fri 05:38:20 PM 27.6258 -78.6169 304° West 395 455 39,000  Level Miami Center
Fri 05:39:20 PM 27.6975 -78.7258 307° West 395 455 39,000  Level Miami Center
Fri 05:40:20 PM 27.7589 -78.8278 304° West 395 455 39,000  Level Miami Center
Fri 05:41:20 PM 27.8161 -78.9206 305° West 401 461 39,000  Level Miami Center
Fri 05:42:20 PM 27.8794 -79.0225 305° West 401 461 39,000  Level Miami Center
Fri 05:43:20 PM 27.9403 -79.1247 304° West 401 461 39,000  Level Miami Center
Fri 05:44:20 PM 28.0033 -79.2272 305° West 401 461 39,000  Level Miami Center
Fri 05:45:20 PM 28.0664 -79.3319 304° West 401 461 39,000  Level Miami Center
Fri 05:46:20 PM 28.1314 -79.4347 306° West 401 461 39,000  Level Miami Center
Fri 05:47:20 PM 28.1964 -79.5400 305° West 406 467 39,000  Level Miami Center
Fri 05:49:23 PM 28.3333 -79.7703 304° West 400 460 39,000  Level Jacksonville Center
Fri 05:50:23 PM 28.3983 -79.8747 305° West 400 460 39,000  Level Jacksonville Center
Fri 05:51:24 PM 28.4614 -79.9811 304° West 405 466 39,000  Level Jacksonville Center
Fri 05:52:24 PM 28.5283 -80.0903 305° West 410 472 39,000  Level Jacksonville Center
Fri 05:53:24 PM 28.5933 -80.1997 304° West 410 472 39,000  Level Jacksonville Center
Fri 05:54:24 PM 28.6581 -80.3067 305° West 410 472 39,000  Level Jacksonville Center
Fri 05:55:24 PM 28.7228 -80.4164 304° West 410 472 39,000  Level Jacksonville Center
Fri 05:56:24 PM 28.7875 -80.5261 304° West 410 472 39,000  Level Jacksonville Center
Fri 05:57:24 PM 28.8625 -80.6308 309° West 410 472 39,000  Level Jacksonville Center
Fri 05:58:24 PM 28.9475 -80.7239 316° Northwest 415 478 39,000  Level Jacksonville Center
Fri 05:59:24 PM 29.0553 -80.7906 332° Northwest 427 491 39,000  Level Jacksonville Center
Fri 06:00:24 PM 29.1708 -80.8475 337° Northwest 432 497 39,000  Level Jacksonville Center
Fri 06:01:24 PM 29.2864 -80.8997 338° Northwest 437 503 39,000  Level Jacksonville Center
Fri 06:02:24 PM 29.4000 -80.9569 336° Northwest 443 510 39,000  Level Jacksonville Center
Fri 06:03:24 PM 29.5136 -81.0119 337° Northwest 443 510 39,000  Level Jacksonville Center
Fri 06:04:24 PM 29.6292 -81.0672 337° Northwest 443 510 39,000  Level Jacksonville Center
Fri 06:05:24 PM 29.7428 -81.1225 337° Northwest 443 510 39,000  Level Jacksonville Center
Fri 06:06:24 PM 29.8583 -81.1778 337° Northwest 443 510 39,000  Level Jacksonville Center
Fri 06:07:24 PM 29.9758 -81.2333 338° Northwest 443 510 39,000  Level Jacksonville Center
Fri 06:08:24 PM 30.0936 -81.2889 338° Northwest 443 510 39,000  Level Jacksonville Center
Fri 06:09:24 PM 30.2092 -81.3469 337° Northwest 443 510 39,000  Level Jacksonville Center
Fri 06:10:24 PM 30.3267 -81.4006 339° North 443 510 39,000  Level Jacksonville Center
Fri 06:11:24 PM 30.4339 -81.4519 338° Northwest 451 519 39,000  Level Jacksonville Center
Fri 06:12:24 PM 30.5514 -81.5103 337° Northwest 456 525 39,000  Level Jacksonville Center
Fri 06:13:24 PM 30.6667 -81.5667 337° Northwest 456 525 39,000  Level Jacksonville Center
Fri 06:14:24 PM 30.7947 -81.6325 336° Northwest 451 519 39,000  Level Jacksonville Center
Fri 06:15:24 PM 30.8975 -81.6844 337° Northwest 451 519 39,000  Level Jacksonville Center
Fri 06:16:23 PM 31.0131 -81.7411 337° Northwest 451 519 39,000  Level Jacksonville Center
Fri 06:17:24 PM 31.1283 -81.7981 337° Northwest 445 512 39,000  Level Jacksonville Center
Fri 06:18:24 PM 31.2417 -81.8550 337° Northwest 440 506 39,000  Level Jacksonville Center
Fri 06:19:24 PM 31.3653 -81.9144 338° Northwest 440 506 39,000  Level Jacksonville Center
Fri 06:20:24 PM 31.4764 -81.9694 337° Northwest 426 490 39,000  Level Jacksonville Center
Fri 06:21:24 PM 31.5769 -82.0244 335° Northwest 426 490 39,000  Level Jacksonville Center
Fri 06:23:30 PM 31.8028 -82.1353 337° Northwest 420 483 39,000  Level Atlanta Center
Fri 06:24:29 PM 31.9100 -82.1892 337° Northwest 420 483 39,000  Level Atlanta Center
Fri 06:25:30 PM 32.0172 -82.2408 338° Northwest 420 483 39,000  Level Atlanta Center
Fri 06:26:29 PM 32.1244 -82.2953 337° Northwest 420 483 39,000  Level Atlanta Center
Fri 06:27:29 PM 32.2339 -82.3494 337° Northwest 420 483 39,000  Level Atlanta Center
Fri 06:28:29 PM 32.3389 -82.4042 336° Northwest 420 483 39,000  Level Atlanta Center
Fri 06:29:29 PM 32.4481 -82.4586 337° Northwest 420 483 39,000  Level Atlanta Center
Fri 06:30:29 PM 32.5553 -82.5158 336° Northwest 420 483 39,000  Level Atlanta Center
Fri 06:31:30 PM 32.6625 -82.5733 336° Northwest 420 483 39,000  Level Atlanta Center
Fri 06:32:29 PM 32.7694 -82.6258 338° Northwest 420 483 39,000  Level Atlanta Center
Fri 06:33:29 PM 32.8789 -82.6833 336° Northwest 420 483 39,000  Level Atlanta Center
Fri 06:34:30 PM 32.9881 -82.7411 336° Northwest 420 483 39,000  Level Atlanta Center
Fri 06:35:29 PM 33.0969 -82.7989 336° Northwest 420 483 39,000  Level Atlanta Center
Fri 06:36:29 PM 33.2042 -82.8544 337° Northwest 420 483 39,000  Level Atlanta Center
Fri 06:37:29 PM 33.3300 -82.9150 338° Northwest 429 494 39,000  Level Atlanta Center
Fri 06:38:30 PM 33.4306 -82.9708 335° Northwest 429 494 39,000  Level Atlanta Center
Fri 06:39:29 PM 33.5397 -83.0269 337° Northwest 422 486 39,000  Level Atlanta Center
Fri 06:40:30 PM 33.6444 -83.0806 337° Northwest 412 474 39,000  Level Atlanta Center
Fri 06:41:29 PM 33.7492 -83.1369 336° Northwest 412 474 39,000  Level Atlanta Center
Fri 06:42:29 PM 33.8456 -83.1883 336° Northwest 412 474 39,000  Level Atlanta Center
Fri 06:43:29 PM 33.9503 -83.2450 336° Northwest 412 474 39,000  Level Atlanta Center
Fri 06:44:29 PM 34.0569 -83.2992 337° Northwest 411 473 39,000  Level Atlanta Center
Fri 06:45:29 PM 34.1639 -83.3533 337° Northwest 411 473 39,000  Level Atlanta Center
Fri 06:46:29 PM 34.2664 -83.4103 335° Northwest 416 479 39,000  Level Atlanta Center
Fri 06:47:29 PM 34.3753 -83.4675 337° Northwest 409 471 39,000  Level Atlanta Center
Fri 06:48:29 PM 34.4819 -83.5247 336° Northwest 420 483 39,000  Level Atlanta Center
Fri 06:49:29 PM 34.5886 -83.5819 336° Northwest 420 483 39,000  Level Atlanta Center
Fri 06:50:29 PM 34.6994 -83.6422 336° Northwest 420 483 39,000  Level Atlanta Center
Fri 06:51:29 PM 34.8186 -83.7047 337° Northwest 420 483 39,000 298 Level Atlanta Center
Fri 06:52:30 PM 34.9272 -83.7628 336° Northwest 426 490 39,600 500 Climbing Atlanta Center
Fri 06:53:29 PM 35.0150 -83.8206 332° Northwest 412 474 40,000 202 Climbing Atlanta Center
Fri 06:54:29 PM 35.1194 -83.8764 336° Northwest 401 461 40,000  Level Atlanta Center
Fri 06:55:30 PM 35.2217 -83.9319 336° Northwest 401 461 40,000  Level Atlanta Center
Fri 06:56:30 PM 35.3281 -83.9903 336° Northwest 401 461 40,000  Level Atlanta Center
Fri 06:57:30 PM 35.4344 -84.0489 336° Northwest 406 467 40,000  Level Atlanta Center
Fri 06:58:30 PM 35.5389 -84.1078 335° Northwest 406 467 40,000  Level Atlanta Center
Fri 06:59:29 PM 35.6453 -84.1639 337° Northwest 406 467 40,000  Level Atlanta Center
Fri 07:00:29 PM 35.7514 -84.2231 336° Northwest 406 467 40,000  Level Atlanta Center
Fri 07:01:29 PM 35.8683 -84.2897 335° Northwest 414 476 40,000  Level Atlanta Center
Fri 07:03:15 PM 36.0397 -84.3839 336° Northwest 414 476 40,000  Level Indianapolis Center
Fri 07:04:17 PM 36.1447 -84.4417 336° Northwest 416 479 40,000  Level Indianapolis Center
Fri 07:05:18 PM 36.2700 -84.5131 335° Northwest 415 478 40,000  Level Indianapolis Center
Fri 07:06:20 PM 36.3747 -84.5722 336° Northwest 415 478 40,000  Level Indianapolis Center
Fri 07:07:22 PM 36.4792 -84.6322 335° Northwest 414 476 40,000  Level Indianapolis Center
Fri 07:08:23 PM 36.5839 -84.6911 336° Northwest 414 476 40,000  Level Indianapolis Center
Fri 07:09:25 PM 36.6875 -84.7500 336° Northwest 412 474 40,000  Level Indianapolis Center
Fri 07:10:27 PM 36.7919 -84.8108 335° Northwest 414 476 40,000  Level Indianapolis Center
Fri 07:11:28 PM 36.9181 -84.8844 335° Northwest 416 479 40,000  Level Indianapolis Center
Fri 07:12:30 PM 37.0217 -84.9425 336° Northwest 411 473 40,000  Level Indianapolis Center
Fri 07:13:32 PM 37.1225 -84.9842 342° North 425 489 40,000  Level Indianapolis Center
Fri 07:14:34 PM 37.2597 -85.0258 346° North 432 497 40,000  Level Indianapolis Center
Fri 07:15:35 PM 37.3764 -85.0606 347° North 430 495 40,000  Level Indianapolis Center
Fri 07:16:37 PM 37.4925 -85.0956 347° North 428 493 40,000  Level Indianapolis Center
Fri 07:17:38 PM 37.6094 -85.1317 346° North 430 495 40,000  Level Indianapolis Center
Fri 07:18:40 PM 37.7272 -85.1678 346° North 432 497 40,000  Level Indianapolis Center
Fri 07:19:42 PM 37.8344 -85.2022 346° North 434 499 40,000  Level Indianapolis Center
Fri 07:20:43 PM 37.9783 -85.2436 347° North 439 505 40,000  Level Indianapolis Center
Fri 07:21:45 PM 38.0961 -85.2800 346° North 435 501 40,000  Level Indianapolis Center
Fri 07:22:47 PM 38.2139 -85.3175 346° North 436 502 40,000 -439 Level Indianapolis Center
Fri 07:23:48 PM 38.3289 -85.3536 346° North 430 495 39,100 -1,659 Descending Indianapolis Center
Fri 07:24:50 PM 38.4419 -85.3886 346° North 422 486 36,600 -1,984 Descending Indianapolis Center
Fri 07:25:52 PM 38.5600 -85.4242 347° North 432 497 35,000 -774 Descending Indianapolis Center
Fri 07:26:54 PM 38.6775 -85.4611 346° North 441 507 35,000 -1,220 Level Indianapolis Center
Fri 07:27:55 PM 38.8203 -85.5058 346° North 442 509 32,500 -1,707 Descending Indianapolis Center
Fri 07:28:57 PM 38.9358 -85.5428 346° North 434 499 31,500 -919 Descending Indianapolis Center
Fri 07:29:59 PM 39.0564 -85.5814 346° North 442 509 30,600 -878 Descending Indianapolis Center
Fri 07:31:00 PM 39.1808 -85.6203 346° North 455 524 29,700 -780 Descending Indianapolis Center
Fri 07:32:02 PM 39.3061 -85.6600 346° North 463 533 29,000 -339 Descending Indianapolis Center
Fri 07:33:04 PM 39.4297 -85.6994 346° North 463 533 29,000  Level Indianapolis Center
Fri 07:34:05 PM 39.5756 -85.7475 346° North 456 525 29,000 -1,122 Level Indianapolis Center
Fri 07:35:07 PM 39.6972 -85.7856 346° North 455 524 26,700 -2,341 Descending Indianapolis Center
Fri 07:36:08 PM 39.8133 -85.8236 346° North 441 507 24,200 -1,317 Descending Indianapolis Center
Fri 07:37:10 PM 39.9244 -85.8597 346° North 422 486 24,000 -97 Descending Indianapolis Center
Fri 07:38:12 PM 40.0375 -85.8964 346° North 422 486 24,000  Level Indianapolis Center
Fri 07:39:00 PM 40.1267 -85.9272 345° North 421 484 24,000 -275 Level Chicago Center
Fri 07:40:01 PM 40.2497 -85.9961 337° Northwest 406 467 23,500 -1,070 Descending Chicago Center
Fri 07:42:05 PM 40.4556 -86.1069 338° Northwest 400 460 20,700 -1,419 Descending Chicago Center
Fri 07:43:07 PM 40.5550 -86.1622 337° Northwest 394 453 19,100 -1,500 Descending Chicago Center
Fri 07:44:09 PM 40.6536 -86.2164 337° Northwest 387 445 17,600 -1,597 Descending Chicago Center
Fri 07:45:11 PM 40.7633 -86.2753 338° Northwest 380 437 15,800 -1,645 Descending Chicago Center
Fri 07:46:13 PM 40.8594 -86.3286 337° Northwest 375 432 14,200 -1,561 Descending Chicago Center
Fri 07:47:14 PM 40.9525 -86.3800 337° Northwest 365 420 12,600 -1,512 Descending Chicago Center
Fri 07:48:16 PM 41.0422 -86.4339 336° Northwest 352 405 11,100 -919 Descending Chicago Center
Fri 07:49:18 PM 41.0914 -86.5331 303° West 326 375 10,700 -532 Descending Chicago Center
Fri 07:50:20 PM 41.1547 -86.6228 313° West 330 380 10,000 -339 Descending Chicago Center
Fri 07:51:22 PM 41.2281 -86.7325 312° West 330 380 10,000  Level Chicago Center
Fri 07:52:23 PM 41.2894 -86.8231 312° West 330 380 10,000 -49 Level Chicago Center
Fri 07:53:25 PM 41.3450 -86.9061 312° West 306 352 9,900 -677 Descending Chicago Center
Fri 07:54:27 PM 41.3922 -86.9756 312° West 262 302 8,600 -1,355 Descending Chicago Center
Fri 07:55:29 PM 41.4386 -87.0494 310° West 260 299 7,100 -1,258 Descending Chicago Center
Fri 07:56:31 PM 41.4706 -87.1333 297° West 258 297 6,000 -537 Descending Chicago Center
Fri 07:57:32 PM 41.5042 -87.2139 299° West 254 292 6,000 -293 Level Chicago Center
Fri 07:58:34 PM 41.5450 -87.3122 299° West 252 290 5,400 -532 Descending Chicago Center
Fri 07:59:36 PM 41.5761 -87.3850 300° West 253 291 4,900 -396 Descending Chicago Center
Fri 08:02:06 PM 41.6667 -87.5833 301° West 194 223 4,000 -514 Descending Chicago TRACON
Fri 08:03:06 PM 41.7000 -87.6333 312° West 178 205 3,100 -950 Descending Chicago TRACON
Fri 08:04:06 PM 41.7333 -87.6833 312° West 153 176 2,100 -900 Descending Chicago TRACON
Fri 08:05:06 PM 41.7667 -87.7167 323° Northwest 131 151 1,300 -800 Descending Chicago TRACON
Fri 08:07:00 PM 41.7833 -87.7500 315° West  Level FlightAware Approximate

Login

Don't have an account? Register now (free) for customized features, flight alerts, and more!